Time;durP1;ratioP1;P1;durP2;ratioP2;P2;SDS_P1;SDS_P2;PMS_P1;PMS_P2;Temp;Humidity;BMP_temperature;BMP_pressure;BME280_temperature;BME280_humidity;BME280_pressure;Samples;Min_cycle;Max_cycle;Signal;HPM_P1;HPM_P2
2021/04/23 00:00:34;;;;;;;9.15;2.72;;;;;;;;;;5093601;28;20018;-71
2021/04/23 00:03:01;;;;;;;12.52;2.72;;;;;;;;;;5093470;28;20032;-71
2021/04/23 00:05:28;;;;;;;6.18;2.20;;;;;;;;;;5093644;28;20069;-71
2021/04/23 00:07:54;;;;;;;6.05;2.13;;;;;;;;;;5092804;28;20621;-71
2021/04/23 00:10:21;;;;;;;12.30;2.65;;;;;;;;;;5093478;28;20065;-71
2021/04/23 00:12:47;;;;;;;8.80;2.60;;;;;;;;;;5093416;28;20020;-71
2021/04/23 00:15:15;;;;;;;10.10;2.58;;;;;;;;;;5093518;28;20521;-71
2021/04/23 00:17:41;;;;;;;9.00;2.90;;;;;;;;;;5091897;28;20024;-71
2021/04/23 00:20:10;;;;;;;6.55;2.10;;;;;;;;;;5093211;28;20051;-71
2021/04/23 00:22:36;;;;;;;9.52;2.30;;;;;;;;;;5093011;28;20039;-71
2021/04/23 00:25:03;;;;;;;13.00;2.58;;;;;;;;;;5091867;28;20024;-71
2021/04/23 00:27:29;;;;;;;6.88;1.95;;;;;;;;;;5092312;28;20012;-71
2021/04/23 00:32:55;;;;;;;11.07;2.75;;;;;;;;;;5091627;28;20089;-71
2021/04/23 00:35:32;;;;;;;9.65;2.30;;;;;;;;;;5090463;28;20104;-72
2021/04/23 00:38:00;;;;;;;7.70;2.70;;;;;;;;;;5091354;28;20479;-71
2021/04/23 00:40:28;;;;;;;14.63;2.60;;;;;;;;;;5092870;28;20031;-71
2021/04/23 00:42:55;;;;;;;6.60;2.33;;;;;;;;;;5092368;28;20044;-71
2021/04/23 00:45:23;;;;;;;9.40;2.58;;;;;;;;;;5092937;28;20554;-71
2021/04/23 00:47:49;;;;;;;7.53;2.45;;;;;;;;;;5092794;28;20035;-71
2021/04/23 00:50:27;;;;;;;9.82;2.67;;;;;;;;;;5091425;28;20456;-71
2021/04/23 00:52:53;;;;;;;7.47;2.42;;;;;;;;;;5092738;28;20019;-71
2021/04/23 00:55:19;;;;;;;7.05;2.53;;;;;;;;;;5092355;28;20028;-69
2021/04/23 00:57:45;;;;;;;6.97;2.60;;;;;;;;;;5092589;28;20051;-71
2021/04/23 01:00:11;;;;;;;10.43;2.50;;;;;;;;;;5092533;28;20478;-71
2021/04/23 01:02:37;;;;;;;7.90;2.28;;;;;;;;;;5092392;28;20039;-70
2021/04/23 01:05:04;;;;;;;7.18;2.80;;;;;;;;;;5091253;28;20051;-71
2021/04/23 01:07:30;;;;;;;9.15;2.90;;;;;;;;;;5090062;28;20061;-71
2021/04/23 01:09:56;;;;;;;5.72;2.60;;;;;;;;;;5070765;28;20024;-71
2021/04/23 01:12:22;;;;;;;7.43;2.38;;;;;;;;;;5070655;28;20116;-71
2021/04/23 01:14:48;;;;;;;9.15;2.45;;;;;;;;;;5072088;28;20122;-71
2021/04/23 01:17:14;;;;;;;8.60;2.30;;;;;;;;;;5089886;28;20379;-71
2021/04/23 01:19:40;;;;;;;8.35;2.35;;;;;;;;;;5091622;28;20117;-71
2021/04/23 01:22:06;;;;;;;7.70;2.70;;;;;;;;;;5092050;28;20077;-71
2021/04/23 01:24:33;;;;;;;10.05;2.38;;;;;;;;;;5092292;28;20024;-71
2021/04/23 01:26:59;;;;;;;10.65;2.30;;;;;;;;;;5092280;28;20042;-71
2021/04/23 01:29:26;;;;;;;6.65;2.20;;;;;;;;;;5090891;28;20028;-71
2021/04/23 01:31:54;;;;;;;5.40;2.05;;;;;;;;;;5092080;28;20111;-71
2021/04/23 01:34:22;;;;;;;6.07;2.10;;;;;;;;;;5091966;28;20073;-71
2021/04/23 01:36:50;;;;;;;6.20;2.30;;;;;;;;;;5091973;28;20016;-71
2021/04/23 01:39:18;;;;;;;8.25;2.72;;;;;;;;;;5090580;28;20024;-71
2021/04/23 01:41:44;;;;;;;10.65;2.83;;;;;;;;;;5090413;28;20051;-71
2021/04/23 01:44:11;;;;;;;7.95;2.50;;;;;;;;;;5090600;28;20040;-71
2021/04/23 01:46:37;;;;;;;6.68;2.75;;;;;;;;;;5091783;28;20020;-71
2021/04/23 01:49:05;;;;;;;5.93;2.17;;;;;;;;;;5091588;28;20020;-71
2021/04/23 01:51:31;;;;;;;7.88;2.60;;;;;;;;;;5091724;28;20020;-72
2021/04/23 01:53:57;;;;;;;6.28;2.10;;;;;;;;;;5090579;28;20024;-71
2021/04/23 01:56:24;;;;;;;6.38;2.15;;;;;;;;;;5091868;28;20498;-71
2021/04/23 01:58:50;;;;;;;8.35;2.65;;;;;;;;;;5091874;28;20106;-71
2021/04/23 02:01:17;;;;;;;6.75;2.47;;;;;;;;;;5090277;28;20024;-71
2021/04/23 02:03:43;;;;;;;8.73;2.63;;;;;;;;;;5091514;28;20032;-71
2021/04/23 02:06:09;;;;;;;7.78;2.50;;;;;;;;;;5091632;28;20028;-72
2021/04/23 02:08:35;;;;;;;6.90;2.25;;;;;;;;;;5091660;28;20028;-71
2021/04/23 02:11:09;;;;;;;6.80;2.40;;;;;;;;;;5091664;28;20095;-71
2021/04/23 02:13:37;;;;;;;8.40;2.70;;;;;;;;;;5091701;28;20059;-71
2021/04/23 02:16:03;;;;;;;7.13;2.20;;;;;;;;;;5090312;28;20020;-71
2021/04/23 02:18:29;;;;;;;9.45;2.65;;;;;;;;;;5091573;28;20103;-71
2021/04/23 02:20:55;;;;;;;9.07;2.67;;;;;;;;;;5091577;28;20016;-71
2021/04/23 02:23:23;;;;;;;4.97;1.98;;;;;;;;;;5091509;28;20383;-71
2021/04/23 02:25:50;;;;;;;7.45;2.22;;;;;;;;;;5090493;28;20435;-71
2021/04/23 02:28:19;;;;;;;8.55;2.40;;;;;;;;;;5090038;28;20119;-71
2021/04/23 02:30:47;;;;;;;7.82;2.63;;;;;;;;;;5091353;28;20040;-72
2021/04/23 02:33:15;;;;;;;7.25;2.25;;;;;;;;;;5095639;28;20012;-71
2021/04/23 02:35:41;;;;;;;6.93;2.45;;;;;;;;;;5095470;28;20154;-71
2021/04/23 02:38:08;;;;;;;6.70;2.28;;;;;;;;;;5095452;28;20020;-71
2021/04/23 02:40:35;;;;;;;7.80;2.55;;;;;;;;;;5095167;28;20115;-71
2021/04/23 02:43:04;;;;;;;8.95;2.95;;;;;;;;;;5093998;28;20036;-71
2021/04/23 02:45:32;;;;;;;8.80;3.05;;;;;;;;;;5095221;28;20027;-71
2021/04/23 02:47:59;;;;;;;7.32;2.35;;;;;;;;;;5095186;28;20020;-71
2021/04/23 02:50:26;;;;;;;7.07;2.55;;;;;;;;;;5094980;28;20566;-71
2021/04/23 02:52:53;;;;;;;7.32;2.55;;;;;;;;;;5093919;28;20024;-71
2021/04/23 02:55:19;;;;;;;8.10;2.80;;;;;;;;;;5095169;28;20019;-71
2021/04/23 02:58:05;;;;;;;10.30;3.08;;;;;;;;;;5093769;28;20091;-71
2021/04/23 03:00:32;;;;;;;8.80;2.92;;;;;;;;;;5094978;28;20020;-71
2021/04/23 03:02:59;;;;;;;7.82;2.95;;;;;;;;;;5094891;28;20032;-71
2021/04/23 03:05:25;;;;;;;8.57;2.47;;;;;;;;;;5094999;28;20517;-71
2021/04/23 03:07:53;;;;;;;7.45;2.60;;;;;;;;;;5094805;28;20024;-71
2021/04/23 03:10:20;;;;;;;8.07;2.70;;;;;;;;;;5094830;28;20356;-72
2021/04/23 03:12:46;;;;;;;6.03;2.50;;;;;;;;;;5094861;28;20421;-71
2021/04/23 03:15:13;;;;;;;5.80;2.30;;;;;;;;;;5092274;28;20027;-71
2021/04/23 03:17:39;;;;;;;7.65;2.30;;;;;;;;;;5093655;28;20027;-71
2021/04/23 03:20:15;;;;;;;8.38;2.70;;;;;;;;;;5093360;28;20020;-71
2021/04/23 03:22:41;;;;;;;7.18;2.28;;;;;;;;;;5094577;28;20085;-71
2021/04/23 03:25:08;;;;;;;7.13;2.42;;;;;;;;;;5094481;28;20506;-71
2021/04/23 03:27:34;;;;;;;8.35;2.63;;;;;;;;;;5094338;28;20024;-72
2021/04/23 03:30:00;;;;;;;13.20;2.45;;;;;;;;;;5094466;28;20016;-71
2021/04/23 03:32:27;;;;;;;6.97;3.22;;;;;;;;;;5094295;28;20024;-71
2021/04/23 03:34:53;;;;;;;7.05;2.30;;;;;;;;;;5094555;28;20023;-71
2021/04/23 03:37:19;;;;;;;25.92;3.17;;;;;;;;;;5094081;28;20019;-71
2021/04/23 03:39:45;;;;;;;6.25;2.67;;;;;;;;;;5092740;28;20247;-72
2021/04/23 03:42:11;;;;;;;10.30;3.00;;;;;;;;;;5092505;28;20040;-72
2021/04/23 03:44:37;;;;;;;7.13;2.60;;;;;;;;;;5093478;28;20028;-71
2021/04/23 03:47:03;;;;;;;6.15;2.45;;;;;;;;;;5094380;28;20020;-71
2021/04/23 03:49:29;;;;;;;7.63;2.25;;;;;;;;;;5092660;28;20421;-72
2021/04/23 03:51:55;;;;;;;5.88;2.30;;;;;;;;;;5093978;28;20164;-71
2021/04/23 03:54:21;;;;;;;6.30;2.40;;;;;;;;;;5093909;28;20062;-71
2021/04/23 03:56:47;;;;;;;8.45;2.88;;;;;;;;;;5093851;28;20047;-71
2021/04/23 03:59:14;;;;;;;8.50;3.40;;;;;;;;;;5092450;28;20031;-72
2021/04/23 04:01:40;;;;;;;9.13;2.75;;;;;;;;;;5092334;28;20348;-71
2021/04/23 04:04:06;;;;;;;7.13;2.67;;;;;;;;;;5093563;28;20467;-71
2021/04/23 04:06:32;;;;;;;8.07;2.85;;;;;;;;;;5092471;28;20031;-71
2021/04/23 04:08:58;;;;;;;10.27;2.83;;;;;;;;;;5093718;28;20024;-71
2021/04/23 04:11:25;;;;;;;10.25;2.90;;;;;;;;;;5093532;28;20379;-71
2021/04/23 04:13:51;;;;;;;8.38;3.05;;;;;;;;;;5093630;28;20119;-71
2021/04/23 04:16:17;;;;;;;6.32;2.85;;;;;;;;;;5093533;28;20020;-72
2021/04/23 04:18:43;;;;;;;9.88;3.05;;;;;;;;;;5093471;28;20136;-71
2021/04/23 04:21:09;;;;;;;9.27;3.20;;;;;;;;;;5093411;28;20019;-72
2021/04/23 04:23:35;;;;;;;8.30;3.10;;;;;;;;;;5093209;28;20036;-71
2021/04/23 04:26:02;;;;;;;8.68;3.00;;;;;;;;;;5093197;28;20024;-71
2021/04/23 04:28:30;;;;;;;7.22;3.03;;;;;;;;;;5093385;28;20020;-71
2021/04/23 04:30:56;;;;;;;6.90;2.65;;;;;;;;;;5091885;28;20110;-71
2021/04/23 04:33:22;;;;;;;13.10;2.83;;;;;;;;;;5091811;28;20115;-72
2021/04/23 04:35:49;;;;;;;9.02;2.90;;;;;;;;;;5093113;28;20098;-71
2021/04/23 04:38:15;;;;;;;7.85;3.03;;;;;;;;;;5093006;28;20037;-72
2021/04/23 04:40:44;;;;;;;6.55;2.50;;;;;;;;;;5092633;28;20103;-72
2021/04/23 04:43:10;;;;;;;8.45;3.10;;;;;;;;;;5091431;28;20032;-72
2021/04/23 04:45:37;;;;;;;9.50;3.42;;;;;;;;;;5092760;28;20382;-72
2021/04/23 04:48:05;;;;;;;8.68;3.47;;;;;;;;;;5092701;28;20012;-71
2021/04/23 04:50:32;;;;;;;10.40;3.33;;;;;;;;;;5092655;28;20034;-71
2021/04/23 04:53:02;;;;;;;8.80;2.97;;;;;;;;;;5092823;28;20506;-72
2021/04/23 04:55:29;;;;;;;11.43;3.20;;;;;;;;;;5092554;28;20020;-71
2021/04/23 04:57:55;;;;;;;6.85;2.90;;;;;;;;;;5092620;28;20024;-72
2021/04/23 05:00:22;;;;;;;7.88;3.40;;;;;;;;;;5092449;28;20039;-71
2021/04/23 05:02:48;;;;;;;7.97;3.03;;;;;;;;;;5092398;28;20452;-71
2021/04/23 05:05:15;;;;;;;8.18;3.40;;;;;;;;;;5092595;28;20087;-72
2021/04/23 05:07:41;;;;;;;9.65;3.10;;;;;;;;;;5092539;28;20020;-71
2021/04/23 05:10:08;;;;;;;6.72;2.75;;;;;;;;;;5092363;28;20020;-72
2021/04/23 05:12:34;;;;;;;7.32;2.85;;;;;;;;;;5091180;28;20181;-71
2021/04/23 05:15:00;;;;;;;7.10;2.92;;;;;;;;;;5092507;28;20016;-71
2021/04/23 05:17:26;;;;;;;7.03;2.88;;;;;;;;;;5089924;28;20023;-72
2021/04/23 05:19:53;;;;;;;7.30;2.75;;;;;;;;;;5091001;28;20198;-71
2021/04/23 05:22:19;;;;;;;6.07;2.40;;;;;;;;;;5090820;28;20028;-72
2021/04/23 05:24:45;;;;;;;7.68;2.65;;;;;;;;;;5092177;28;20035;-72
2021/04/23 05:27:11;;;;;;;6.35;2.65;;;;;;;;;;5092231;28;20016;-71
2021/04/23 05:29:37;;;;;;;8.32;3.00;;;;;;;;;;5092134;28;20028;-72
2021/04/23 05:32:03;;;;;;;7.50;3.22;;;;;;;;;;5090819;28;20664;-72
2021/04/23 05:34:30;;;;;;;9.48;3.05;;;;;;;;;;5090617;28;20104;-72
2021/04/23 05:36:56;;;;;;;7.18;2.92;;;;;;;;;;5090612;28;20028;-72
2021/04/23 05:39:23;;;;;;;8.23;2.70;;;;;;;;;;5092085;28;20510;-72
2021/04/23 05:41:49;;;;;;;7.82;3.08;;;;;;;;;;5091879;28;20047;-72
2021/04/23 05:44:15;;;;;;;7.82;2.75;;;;;;;;;;5091696;28;20032;-72
2021/04/23 05:46:41;;;;;;;5.80;2.45;;;;;;;;;;5090658;28;20150;-72
2021/04/23 05:49:07;;;;;;;6.30;2.72;;;;;;;;;;5092005;28;20020;-72
2021/04/23 05:51:34;;;;;;;8.85;2.63;;;;;;;;;;5091790;28;20027;-72
2021/04/23 05:54:00;;;;;;;7.65;2.88;;;;;;;;;;5091957;28;20162;-72
2021/04/23 05:56:26;;;;;;;7.00;2.42;;;;;;;;;;5091778;28;20027;-72
2021/04/23 05:58:54;;;;;;;7.93;2.92;;;;;;;;;;5091820;28;20024;-71
2021/04/23 06:01:20;;;;;;;8.00;2.30;;;;;;;;;;5091764;28;20020;-72
2021/04/23 06:03:46;;;;;;;7.93;2.97;;;;;;;;;;5091642;28;20124;-72
2021/04/23 06:06:12;;;;;;;7.90;2.90;;;;;;;;;;5091261;28;20486;-72
2021/04/23 06:08:38;;;;;;;6.30;2.15;;;;;;;;;;5091555;28;20036;-72
2021/04/23 06:11:06;;;;;;;8.60;2.22;;;;;;;;;;5091544;28;20016;-72
2021/04/23 06:13:32;;;;;;;6.65;2.55;;;;;;;;;;5091416;28;20020;-72
2021/04/23 06:15:58;;;;;;;6.72;2.35;;;;;;;;;;5091563;28;20024;-72
2021/04/23 06:18:24;;;;;;;6.15;2.50;;;;;;;;;;5090338;28;20020;-72
2021/04/23 06:20:51;;;;;;;6.82;2.70;;;;;;;;;;5091381;28;20498;-72
2021/04/23 06:23:17;;;;;;;8.23;2.65;;;;;;;;;;5091361;28;20052;-72
2021/04/23 06:25:43;;;;;;;8.43;2.53;;;;;;;;;;5090173;28;20107;-72
2021/04/23 06:28:09;;;;;;;5.47;2.13;;;;;;;;;;5091545;28;20028;-72
2021/04/23 06:30:36;;;;;;;5.75;2.20;;;;;;;;;;5091508;28;20072;-72
2021/04/23 06:33:17;;;;;;;7.20;2.30;;;;;;;;;;5091324;28;20023;-72
2021/04/23 06:35:44;;;;;;;6.25;2.30;;;;;;;;;;5091472;28;20394;-72
2021/04/23 06:38:10;;;;;;;6.22;2.53;;;;;;;;;;5091410;28;20016;-72
2021/04/23 06:40:36;;;;;;;6.22;2.30;;;;;;;;;;5091307;28;20075;-72
2021/04/23 06:43:03;;;;;;;6.57;2.50;;;;;;;;;;5089866;28;20089;-72
2021/04/23 06:45:29;;;;;;;6.03;2.13;;;;;;;;;;5091089;28;20021;-72
2021/04/23 06:47:55;;;;;;;5.32;1.95;;;;;;;;;;5089737;28;20077;-72
2021/04/23 06:50:22;;;;;;;6.70;2.40;;;;;;;;;;5091007;28;20475;-73
2021/04/23 06:52:49;;;;;;;5.90;1.83;;;;;;;;;;5091265;28;20387;-72
2021/04/23 06:55:16;;;;;;;7.30;2.10;;;;;;;;;;5090975;28;20022;-72
2021/04/23 06:57:42;;;;;;;8.23;2.40;;;;;;;;;;5091231;28;20020;-72
2021/04/23 07:00:13;;;;;;;7.30;2.10;;;;;;;;;;5089606;28;20114;-72
2021/04/23 07:02:39;;;;;;;5.85;2.03;;;;;;;;;;5090405;28;20016;-73
2021/04/23 07:05:06;;;;;;;7.15;2.20;;;;;;;;;;5090611;28;20024;-72
2021/04/23 07:07:32;;;;;;;7.70;2.72;;;;;;;;;;5090228;28;20020;-72
2021/04/23 07:09:58;;;;;;;6.45;2.30;;;;;;;;;;5088854;28;20024;-72
2021/04/23 07:12:25;;;;;;;7.13;2.45;;;;;;;;;;5089177;28;20024;-72
2021/04/23 07:14:51;;;;;;;7.78;2.47;;;;;;;;;;5089281;28;20181;-72
2021/04/23 07:17:17;;;;;;;5.35;2.30;;;;;;;;;;5089487;28;20493;-72
2021/04/23 07:19:46;;;;;;;6.18;2.20;;;;;;;;;;5091761;28;20095;-72
2021/04/23 07:22:12;;;;;;;6.22;2.17;;;;;;;;;;5090228;28;20048;-72
2021/04/23 07:24:38;;;;;;;10.40;2.13;;;;;;;;;;5092453;28;20038;-72
2021/04/23 07:27:05;;;;;;;8.80;2.33;;;;;;;;;;5093927;28;20104;-72
2021/04/23 07:29:31;;;;;;;6.82;2.75;;;;;;;;;;5093878;28;20016;-72
2021/04/23 07:31:57;;;;;;;8.27;2.05;;;;;;;;;;5092467;28;20016;-73
2021/04/23 07:34:23;;;;;;;6.53;2.30;;;;;;;;;;5088173;28;20020;-72
2021/04/23 07:36:49;;;;;;;13.80;2.60;;;;;;;;;;5093543;28;20051;-74
2021/04/23 07:39:15;;;;;;;7.32;2.30;;;;;;;;;;5093455;28;20466;-73
2021/04/23 07:41:41;;;;;;;7.60;2.13;;;;;;;;;;5093215;28;20058;-73
2021/04/23 07:44:07;;;;;;;10.57;2.53;;;;;;;;;;5093067;28;20044;-72
2021/04/23 07:46:34;;;;;;;8.93;2.33;;;;;;;;;;5093502;28;20093;-72
2021/04/23 07:49:00;;;;;;;7.72;2.60;;;;;;;;;;5093677;28;20603;-70
2021/04/23 07:51:27;;;;;;;8.20;2.20;;;;;;;;;;5093760;28;20028;-74
2021/04/23 07:53:53;;;;;;;10.00;2.35;;;;;;;;;;5093686;28;20016;-73
2021/04/23 07:56:19;;;;;;;9.60;2.30;;;;;;;;;;5092300;28;20101;-73
2021/04/23 07:58:45;;;;;;;7.72;2.05;;;;;;;;;;5092358;28;20103;-72
2021/04/23 08:01:11;;;;;;;6.32;2.10;;;;;;;;;;5093609;28;20024;-73
2021/04/23 08:03:37;;;;;;;7.07;2.08;;;;;;;;;;5092189;28;20040;-72
2021/04/23 08:06:03;;;;;;;5.25;2.00;;;;;;;;;;5093653;28;20020;-74
2021/04/23 08:08:29;;;;;;;7.43;2.00;;;;;;;;;;5093721;28;20043;-73
2021/04/23 08:10:55;;;;;;;7.40;2.00;;;;;;;;;;5090753;28;20566;-76
2021/04/23 08:13:21;;;;;;;5.65;2.03;;;;;;;;;;5073646;28;20387;-73
2021/04/23 08:15:48;;;;;;;6.20;1.88;;;;;;;;;;5073354;28;20021;-72
2021/04/23 08:18:14;;;;;;;7.45;1.95;;;;;;;;;;5071842;28;20029;-76
2021/04/23 08:20:40;;;;;;;6.30;2.17;;;;;;;;;;5071539;28;20028;-75
2021/04/23 08:23:06;;;;;;;8.00;2.45;;;;;;;;;;5072950;28;20075;-74
2021/04/23 08:25:32;;;;;;;9.38;2.00;;;;;;;;;;5072877;28;20104;-75
2021/04/23 08:27:58;;;;;;;6.50;1.80;;;;;;;;;;5071487;28;20090;-74
2021/04/23 08:30:27;;;;;;;7.18;2.10;;;;;;;;;;5072406;28;20017;-76
2021/04/23 08:32:54;;;;;;;10.20;2.70;;;;;;;;;;5072723;28;20039;-74
2021/04/23 08:35:20;;;;;;;5.90;2.13;;;;;;;;;;5072594;28;20028;-75
2021/04/23 08:37:47;;;;;;;6.63;1.88;;;;;;;;;;5072652;28;20048;-73
2021/04/23 08:40:14;;;;;;;7.53;1.98;;;;;;;;;;5071138;28;20047;-75
2021/04/23 08:42:40;;;;;;;6.82;1.77;;;;;;;;;;5074528;28;20041;-73
2021/04/23 08:45:08;;;;;;;7.97;2.20;;;;;;;;;;5079235;28;20051;-73
2021/04/23 08:47:36;;;;;;;5.68;1.73;;;;;;;;;;5092425;28;20495;-72
2021/04/23 08:50:02;;;;;;;7.10;2.03;;;;;;;;;;5077938;28;20044;-72
2021/04/23 08:52:28;;;;;;;6.78;2.08;;;;;;;;;;5070698;28;20021;-71
2021/04/23 08:54:56;;;;;;;5.43;1.95;;;;;;;;;;5072065;28;20025;-72
2021/04/23 08:57:22;;;;;;;5.43;1.92;;;;;;;;;;5091640;28;20361;-71
2021/04/23 08:59:48;;;;;;;11.50;1.83;;;;;;;;;;5078082;28;20048;-70
2021/04/23 09:02:14;;;;;;;5.63;2.03;;;;;;;;;;5071723;28;20025;-73
2021/04/23 09:04:40;;;;;;;9.45;1.75;;;;;;;;;;5072225;28;20040;-78
2021/04/23 09:07:07;;;;;;;6.60;1.98;;;;;;;;;;5071810;28;20021;-77
2021/04/23 09:09:35;;;;;;;6.05;1.90;;;;;;;;;;5072488;28;20021;-77
2021/04/23 09:12:03;;;;;;;5.75;1.90;;;;;;;;;;5071720;28;20095;-70
2021/04/23 09:14:32;;;;;;;7.82;2.03;;;;;;;;;;5086369;28;20052;-72
2021/04/23 09:17:00;;;;;;;5.93;1.85;;;;;;;;;;5087937;28;20043;-69
2021/04/23 09:19:28;;;;;;;5.47;1.60;;;;;;;;;;5090179;28;20020;-69
2021/04/23 09:22:17;;;;;;;7.20;1.98;;;;;;;;;;5091852;28;20055;-70
2021/04/23 09:24:44;;;;;;;5.75;1.60;;;;;;;;;;5079836;28;20131;-73
2021/04/23 09:27:18;;;;;;;4.15;1.60;;;;;;;;;;5091451;28;20024;-73
2021/04/23 09:29:45;;;;;;;11.57;1.80;;;;;;;;;;5089978;28;20141;-77
2021/04/23 09:32:16;;;;;;;5.40;1.85;;;;;;;;;;5090867;28;20331;-71
2021/04/23 09:34:51;;;;;;;5.07;1.83;;;;;;;;;;5090010;28;20027;-70
2021/04/23 09:37:18;;;;;;;7.57;1.60;;;;;;;;;;5087635;28;20070;-70
2021/04/23 09:39:45;;;;;;;4.63;1.85;;;;;;;;;;5091371;28;20020;-77
2021/04/23 09:42:12;;;;;;;5.70;1.65;;;;;;;;;;5089947;28;20040;-68
2021/04/23 09:44:41;;;;;;;7.22;2.08;;;;;;;;;;5091239;28;20157;-76
2021/04/23 09:47:07;;;;;;;7.47;2.10;;;;;;;;;;5091468;28;20115;-72
2021/04/23 09:49:34;;;;;;;6.20;2.20;;;;;;;;;;5090811;28;20031;-71
2021/04/23 09:52:01;;;;;;;5.15;1.80;;;;;;;;;;5071892;28;20432;-76
2021/04/23 09:54:27;;;;;;;5.00;1.98;;;;;;;;;;5086509;28;20037;-77
2021/04/23 09:56:54;;;;;;;7.05;1.80;;;;;;;;;;5087105;28;20059;-74
2021/04/23 09:59:30;;;;;;;5.25;1.60;;;;;;;;;;5071542;28;20020;-78
2021/04/23 10:01:57;;;;;;;4.72;1.73;;;;;;;;;;5101370;28;20111;-71
2021/04/23 10:04:25;;;;;;;5.07;1.75;;;;;;;;;;5090807;28;20036;-74
2021/04/23 10:07:06;;;;;;;5.20;1.52;;;;;;;;;;5090319;28;20497;-76
2021/04/23 10:09:32;;;;;;;4.28;1.70;;;;;;;;;;5089188;28;20161;-76
2021/04/23 10:11:58;;;;;;;4.20;1.35;;;;;;;;;;5090880;28;20012;-67
2021/04/23 10:14:24;;;;;;;5.18;1.90;;;;;;;;;;5090630;28;20178;-82
2021/04/23 10:16:58;;;;;;;5.72;1.70;;;;;;;;;;5090164;28;20097;-70
2021/04/23 10:19:24;;;;;;;6.00;1.75;;;;;;;;;;5091472;28;20099;-67
2021/04/23 10:21:50;;;;;;;4.68;1.63;;;;;;;;;;5089951;28;20012;-81
2021/04/23 10:24:17;;;;;;;5.35;1.70;;;;;;;;;;5090674;28;20036;-77
2021/04/23 10:26:44;;;;;;;5.05;1.80;;;;;;;;;;5091256;28;20538;-74
2021/04/23 10:29:13;;;;;;;3.85;1.48;;;;;;;;;;5091181;28;20024;-73
2021/04/23 10:31:39;;;;;;;4.88;1.60;;;;;;;;;;5091160;28;20093;-71
2021/04/23 10:34:06;;;;;;;4.85;1.77;;;;;;;;;;5090756;28;20077;-73
2021/04/23 10:36:33;;;;;;;6.38;1.50;;;;;;;;;;5089592;28;20364;-73
2021/04/23 10:39:00;;;;;;;5.13;1.70;;;;;;;;;;5090012;28;20028;-74
2021/04/23 10:41:33;;;;;;;6.47;1.70;;;;;;;;;;5090364;28;20040;-80
2021/04/23 10:44:00;;;;;;;3.88;1.50;;;;;;;;;;5091017;28;20028;-78
2021/04/23 10:46:28;;;;;;;4.75;1.63;;;;;;;;;;5090101;28;20021;-76
2021/04/23 10:49:02;;;;;;;5.30;1.67;;;;;;;;;;5091578;28;20012;-79
2021/04/23 10:51:28;;;;;;;3.53;1.42;;;;;;;;;;5091388;28;20024;-77
2021/04/23 10:54:04;;;;;;;5.00;1.50;;;;;;;;;;5084706;28;20445;-70
2021/04/23 10:56:30;;;;;;;4.38;1.30;;;;;;;;;;5074046;28;20080;-73
2021/04/23 10:59:01;;;;;;;4.85;1.98;;;;;;;;;;5073064;28;20023;-71
2021/04/23 11:01:28;;;;;;;4.03;1.48;;;;;;;;;;5074223;28;20088;-70
2021/04/23 11:03:57;;;;;;;7.13;2.47;;;;;;;;;;5074341;28;20029;-73
2021/04/23 11:06:23;;;;;;;10.35;2.72;;;;;;;;;;5074346;28;20027;-73
2021/04/23 11:09:16;;;;;;;12.27;2.95;;;;;;;;;;5074077;28;20415;-77
2021/04/23 11:11:44;;;;;;;9.82;2.33;;;;;;;;;;5069919;28;20509;-71
2021/04/23 11:14:21;;;;;;;9.93;1.98;;;;;;;;;;5081434;28;20077;-69
2021/04/23 11:16:47;;;;;;;14.90;2.60;;;;;;;;;;5078144;28;20368;-72
2021/04/23 11:19:21;;;;;;;11.45;2.15;;;;;;;;;;5085438;28;20067;-72
2021/04/23 11:21:48;;;;;;;12.05;2.10;;;;;;;;;;5093939;28;20023;-72
2021/04/23 11:24:19;;;;;;;10.00;2.08;;;;;;;;;;5093590;28;20047;-74
2021/04/23 11:27:04;;;;;;;10.82;2.22;;;;;;;;;;5086403;28;20025;-75
2021/04/23 11:29:37;;;;;;;6.50;1.90;;;;;;;;;;5073617;28;20028;-72
2021/04/23 11:32:06;;;;;;;9.57;1.90;;;;;;;;;;5074583;28;20104;-72
2021/04/23 11:34:37;;;;;;;8.75;2.05;;;;;;;;;;5093626;28;20019;-71
2021/04/23 11:37:05;;;;;;;9.48;2.05;;;;;;;;;;5093028;28;20064;-74
2021/04/23 11:39:32;;;;;;;10.00;2.35;;;;;;;;;;5073308;28;20440;-73
2021/04/23 11:42:16;;;;;;;7.55;2.03;;;;;;;;;;5073281;28;20048;-71
2021/04/23 11:44:49;;;;;;;8.77;1.90;;;;;;;;;;5073292;28;20123;-72
2021/04/23 11:47:16;;;;;;;4.90;1.60;;;;;;;;;;5071918;28;20032;-72
2021/04/23 11:49:42;;;;;;;6.88;1.67;;;;;;;;;;5081151;28;20050;-72
2021/04/23 11:52:09;;;;;;;7.20;1.60;;;;;;;;;;5093522;28;20027;-73
2021/04/23 11:54:36;;;;;;;8.00;1.58;;;;;;;;;;5092134;28;20020;-73
2021/04/23 11:57:04;;;;;;;5.55;1.83;;;;;;;;;;5093474;28;20030;-72
2021/04/23 11:59:30;;;;;;;5.63;1.67;;;;;;;;;;5093491;28;20051;-73
2021/04/23 12:01:57;;;;;;;4.95;1.63;;;;;;;;;;5091991;28;20414;-71
2021/04/23 12:04:42;;;;;;;5.30;1.50;;;;;;;;;;5092342;28;20031;-71
2021/04/23 12:07:08;;;;;;;7.57;2.00;;;;;;;;;;5092043;28;20031;-73
2021/04/23 12:09:34;;;;;;;4.80;1.58;;;;;;;;;;5091826;28;20028;-71
2021/04/23 12:12:10;;;;;;;5.93;1.70;;;;;;;;;;5091781;28;20024;-72
2021/04/23 12:14:42;;;;;;;5.85;1.42;;;;;;;;;;5093016;28;20028;-72
2021/04/23 12:17:08;;;;;;;5.85;1.50;;;;;;;;;;5092838;28;20513;-71
2021/04/23 12:19:34;;;;;;;5.55;1.92;;;;;;;;;;5092857;28;20031;-71
2021/04/23 12:22:00;;;;;;;7.38;2.03;;;;;;;;;;5092985;28;20020;-72
2021/04/23 12:24:27;;;;;;;6.30;1.63;;;;;;;;;;5078489;28;20025;-71
2021/04/23 12:26:53;;;;;;;6.28;1.75;;;;;;;;;;5096604;28;20012;-71
2021/04/23 12:29:23;;;;;;;9.60;2.40;;;;;;;;;;5090995;28;20028;-68
2021/04/23 12:31:49;;;;;;;6.65;1.85;;;;;;;;;;5092604;28;20475;-69
2021/04/23 12:34:16;;;;;;;8.32;2.15;;;;;;;;;;5092632;28;20024;-67
2021/04/23 12:36:43;;;;;;;6.80;1.88;;;;;;;;;;5092613;28;20020;-73
2021/04/23 12:39:19;;;;;;;6.53;1.60;;;;;;;;;;5091130;28;20047;-71
2021/04/23 12:41:53;;;;;;;12.32;1.90;;;;;;;;;;5091743;28;20083;-70
2021/04/23 12:44:25;;;;;;;7.03;1.73;;;;;;;;;;5093119;28;20490;-69
2021/04/23 12:46:53;;;;;;;5.70;1.70;;;;;;;;;;5092409;28;20055;-71
2021/04/23 12:49:26;;;;;;;3.85;1.40;;;;;;;;;;5090942;28;20043;-70
2021/04/23 12:51:54;;;;;;;4.28;1.50;;;;;;;;;;5092465;28;20024;-70
2021/04/23 12:54:28;;;;;;;11.23;3.88;;;;;;;;;;5092152;28;20028;-72
2021/04/23 12:56:56;;;;;;;33.20;12.02;;;;;;;;;;5091323;28;20039;-71
2021/04/23 12:59:37;;;;;;;115.57;44.38;;;;;;;;;;5090453;28;20472;-70
2021/04/23 13:02:04;;;;;;;165.45;62.63;;;;;;;;;;5092080;28;20032;-70
2021/04/23 13:04:30;;;;;;;188.60;72.03;;;;;;;;;;5091657;28;20122;-71
2021/04/23 13:07:07;;;;;;;161.23;65.53;;;;;;;;;;5087047;28;20016;-71
2021/04/23 13:09:34;;;;;;;154.20;59.08;;;;;;;;;;5071463;28;20028;-71
2021/04/23 13:12:16;;;;;;;152.55;58.92;;;;;;;;;;5070363;28;20165;-70
2021/04/23 13:14:43;;;;;;;150.23;53.17;;;;;;;;;;5079348;28;20063;-71
2021/04/23 13:17:10;;;;;;;122.93;48.05;;;;;;;;;;5091590;28;20020;-71
2021/04/23 13:19:43;;;;;;;118.63;44.00;;;;;;;;;;5091688;28;20028;-71
2021/04/23 13:22:19;;;;;;;104.60;40.47;;;;;;;;;;5091776;28;20016;-71
2021/04/23 13:24:46;;;;;;;103.70;40.00;;;;;;;;;;5091667;28;20047;-72
2021/04/23 13:27:32;;;;;;;84.93;35.10;;;;;;;;;;5079193;28;20021;-72
2021/04/23 13:29:58;;;;;;;77.40;31.98;;;;;;;;;;5086829;28;20070;-71
2021/04/23 13:32:26;;;;;;;87.68;32.72;;;;;;;;;;5084945;28;20046;-71
2021/04/23 13:34:57;;;;;;;75.25;30.05;;;;;;;;;;5091469;28;20496;-71
2021/04/23 13:37:33;;;;;;;76.60;28.80;;;;;;;;;;5090143;28;20122;-71
2021/04/23 13:40:05;;;;;;;73.68;28.88;;;;;;;;;;5091091;28;20028;-73
2021/04/23 13:42:31;;;;;;;61.83;24.98;;;;;;;;;;5089797;28;20048;-75
2021/04/23 13:45:06;;;;;;;59.38;23.90;;;;;;;;;;5091092;28;20100;-72
2021/04/23 13:47:37;;;;;;;58.35;24.73;;;;;;;;;;5091044;28;20388;-76
2021/04/23 13:50:30;;;;;;;57.15;22.45;;;;;;;;;;5070375;28;20406;-75
2021/04/23 13:52:56;;;;;;;58.92;22.23;;;;;;;;;;5067320;28;20543;-75
2021/04/23 13:55:22;;;;;;;47.85;18.73;;;;;;;;;;5070886;28;20533;-76
2021/04/23 13:58:01;;;;;;;41.10;17.67;;;;;;;;;;5070839;28;20043;-75
2021/04/23 14:00:27;;;;;;;48.20;17.33;;;;;;;;;;5070566;28;20467;-75
2021/04/23 14:03:00;;;;;;;41.38;14.25;;;;;;;;;;5079773;28;20024;-72
2021/04/23 14:05:26;;;;;;;41.33;15.25;;;;;;;;;;5089970;28;20036;-74
2021/04/23 14:07:52;;;;;;;39.03;15.02;;;;;;;;;;5073982;28;20013;-73
2021/04/23 14:10:19;;;;;;;39.78;14.50;;;;;;;;;;5087478;28;20023;-72
2021/04/23 14:12:45;;;;;;;39.10;14.07;;;;;;;;;;5089718;28;20056;-73
2021/04/23 14:15:11;;;;;;;38.95;13.98;;;;;;;;;;5090526;28;20029;-72
2021/04/23 14:17:38;;;;;;;26.73;11.88;;;;;;;;;;5089423;28;20020;-73
2021/04/23 14:20:04;;;;;;;29.20;12.02;;;;;;;;;;5089690;28;20020;-73
2021/04/23 14:22:30;;;;;;;32.22;12.88;;;;;;;;;;5090251;28;20051;-72
2021/04/23 14:24:56;;;;;;;38.78;13.23;;;;;;;;;;5089989;28;20059;-72
2021/04/23 14:27:22;;;;;;;25.02;10.70;;;;;;;;;;5076701;28;20028;-72
2021/04/23 14:29:49;;;;;;;26.15;10.88;;;;;;;;;;5094228;28;20539;-74
2021/04/23 14:32:16;;;;;;;28.42;10.50;;;;;;;;;;5093429;28;20119;-76
2021/04/23 14:34:42;;;;;;;20.83;8.52;;;;;;;;;;5093831;28;20031;-72
2021/04/23 14:37:08;;;;;;;24.45;9.45;;;;;;;;;;5093849;28;20027;-72
2021/04/23 14:39:35;;;;;;;26.05;9.30;;;;;;;;;;5083623;28;20107;-74
2021/04/23 14:42:01;;;;;;;21.25;8.98;;;;;;;;;;5093917;28;20133;-72
2021/04/23 14:44:27;;;;;;;19.48;7.85;;;;;;;;;;5094722;28;20039;-74